createdAt,value
2018-07-25T00:01:53.732Z,11.97
2018-07-25T00:04:23.455Z,10.60
2018-07-25T00:06:53.080Z,11.00
2018-07-25T00:09:27.872Z,13.97
2018-07-25T00:11:57.569Z,11.17
2018-07-25T00:14:27.179Z,9.97
2018-07-25T00:16:56.972Z,11.37
2018-07-25T00:19:27.008Z,11.20
2018-07-25T00:21:56.739Z,12.30
2018-07-25T00:24:26.494Z,11.37
2018-07-25T00:26:56.300Z,12.13
2018-07-25T00:29:26.001Z,12.03
2018-07-25T00:31:55.630Z,14.80
2018-07-25T00:34:25.356Z,10.70
2018-07-25T00:36:55.105Z,12.43
2018-07-25T00:39:24.830Z,11.27
2018-07-25T00:41:54.574Z,13.47
2018-07-25T00:44:24.256Z,10.00
2018-07-25T00:46:54.094Z,11.00
2018-07-25T00:49:23.841Z,10.30
2018-07-25T00:51:53.520Z,9.97
2018-07-25T00:54:23.266Z,10.17
2018-07-25T00:56:53.004Z,10.77
2018-07-25T00:59:23.192Z,15.23
2018-07-25T01:01:52.958Z,11.73
2018-07-25T01:04:22.595Z,12.80
2018-07-25T01:06:52.308Z,12.30
2018-07-25T01:09:22.079Z,13.10
2018-07-25T01:11:51.780Z,11.00
2018-07-25T01:14:21.967Z,18.17
2018-07-25T01:16:51.831Z,12.13
2018-07-25T01:19:21.406Z,12.57
2018-07-25T01:21:51.029Z,16.07
2018-07-25T01:24:20.800Z,22.53
2018-07-25T01:26:50.557Z,17.23
2018-07-25T01:29:20.985Z,13.40
2018-07-25T01:31:50.784Z,13.57
2018-07-25T01:34:20.552Z,11.90
2018-07-25T01:36:50.431Z,11.03
2018-07-25T01:39:20.214Z,18.10
2018-07-25T01:41:49.928Z,15.60
2018-07-25T01:44:19.651Z,13.70
2018-07-25T01:46:49.468Z,17.50
2018-07-25T01:49:19.057Z,12.97
2018-07-25T01:51:48.759Z,15.07
2018-07-25T01:54:18.459Z,14.00
2018-07-25T01:56:48.311Z,12.73
2018-07-25T01:59:19.023Z,12.40
2018-07-25T02:01:48.677Z,21.47
2018-07-25T02:04:18.290Z,11.60
2018-07-25T02:06:47.947Z,15.60
2018-07-25T02:09:17.730Z,13.23
2018-07-25T02:11:47.453Z,13.47
2018-07-25T02:14:17.140Z,12.57
2018-07-25T02:16:46.973Z,11.30
2018-07-25T02:19:16.815Z,12.27
2018-07-25T02:21:46.562Z,11.53
2018-07-25T02:24:16.604Z,14.60
2018-07-25T02:26:46.360Z,10.53
2018-07-25T02:29:16.061Z,28.00
2018-07-25T02:31:45.748Z,10.93
2018-07-25T02:34:20.449Z,12.53
2018-07-25T02:36:50.977Z,9.87
2018-07-25T02:39:21.205Z,10.90
2018-07-25T02:41:50.971Z,10.77
2018-07-25T02:44:20.698Z,10.73
2018-07-25T02:46:50.443Z,10.83
2018-07-25T02:49:20.180Z,11.43
2018-07-25T02:51:50.010Z,13.33
2018-07-25T02:54:19.760Z,11.63
2018-07-25T02:56:49.378Z,9.90
2018-07-25T02:59:19.121Z,11.60
2018-07-25T03:01:48.882Z,10.60
2018-07-25T03:04:18.607Z,12.70
2018-07-25T03:06:48.347Z,11.10
2018-07-25T03:09:17.962Z,11.83
2018-07-25T03:11:47.712Z,12.53
2018-07-25T03:14:17.473Z,13.40
2018-07-25T03:16:47.349Z,12.53
2018-07-25T03:19:17.675Z,15.57
2018-07-25T03:21:47.519Z,12.10
2018-07-25T03:24:17.391Z,15.77
2018-07-25T03:26:47.265Z,13.47
2018-07-25T03:29:17.049Z,22.07
2018-07-25T03:31:46.835Z,13.67
2018-07-25T03:34:16.612Z,17.00
2018-07-25T03:36:46.289Z,21.27
2018-07-25T03:39:16.073Z,12.50
2018-07-25T03:41:45.674Z,16.60
2018-07-25T03:44:15.432Z,10.23
2018-07-25T03:46:45.198Z,10.97
2018-07-25T03:49:14.808Z,14.70
2018-07-25T03:51:44.478Z,11.90
2018-07-25T03:54:14.066Z,10.70
2018-07-25T03:56:43.724Z,12.43
2018-07-25T03:59:13.454Z,11.50
2018-07-25T04:01:43.616Z,12.40
2018-07-25T04:04:13.321Z,14.20
2018-07-25T04:06:43.144Z,12.03
2018-07-25T04:09:12.765Z,11.40
2018-07-25T04:11:42.565Z,13.77
2018-07-25T04:14:12.343Z,11.07
2018-07-25T04:16:41.986Z,11.43
2018-07-25T04:19:12.054Z,12.40
2018-07-25T04:21:41.695Z,16.97
2018-07-25T04:24:11.446Z,11.63
2018-07-25T04:26:41.061Z,12.87
2018-07-25T04:29:11.048Z,13.80
2018-07-25T04:31:40.798Z,17.27
2018-07-25T04:34:10.713Z,13.97
2018-07-25T04:36:40.389Z,14.07
2018-07-25T04:39:12.637Z,12.60
2018-07-25T04:41:42.811Z,31.00
2018-07-25T04:44:12.633Z,64.57
2018-07-25T04:46:42.546Z,21.70
2018-07-25T04:49:13.286Z,15.27
2018-07-25T04:51:43.031Z,13.97
2018-07-25T04:54:12.780Z,18.77
2018-07-25T04:56:42.467Z,14.00
2018-07-25T04:59:12.126Z,21.53
2018-07-25T05:01:41.831Z,22.40
2018-07-25T05:04:11.709Z,13.20
2018-07-25T05:06:41.404Z,12.43
2018-07-25T05:09:11.765Z,14.00
2018-07-25T05:11:41.457Z,13.60
2018-07-25T05:14:11.144Z,13.23
2018-07-25T05:16:40.672Z,12.97
2018-07-25T05:19:10.430Z,12.23
2018-07-25T05:21:40.171Z,17.60
2018-07-25T05:24:10.864Z,15.17
2018-07-25T05:26:41.054Z,18.83
2018-07-25T05:29:11.957Z,10.53
2018-07-25T05:31:41.875Z,15.47
2018-07-25T05:34:11.764Z,14.83
2018-07-25T05:36:41.360Z,14.90
2018-07-25T05:39:13.476Z,14.10
2018-07-25T05:41:43.716Z,17.27
2018-07-25T05:44:13.492Z,20.83
2018-07-25T05:46:43.142Z,19.10
2018-07-25T05:49:14.782Z,14.40
2018-07-25T05:51:44.531Z,21.37
2018-07-25T05:54:14.280Z,12.77
2018-07-25T05:56:44.903Z,14.17
2018-07-25T05:59:15.676Z,28.47
2018-07-25T06:01:45.439Z,13.67
2018-07-25T06:04:15.117Z,13.63
2018-07-25T06:06:44.957Z,18.27
2018-07-25T06:09:14.728Z,28.13
2018-07-25T06:11:44.913Z,22.57
2018-07-25T06:14:14.626Z,19.60
2018-07-25T06:16:44.393Z,20.07
2018-07-25T06:19:14.241Z,24.80
2018-07-25T06:21:44.024Z,17.00
2018-07-25T06:24:13.760Z,22.80
2018-07-25T06:26:43.469Z,21.30
2018-07-25T06:29:13.151Z,18.70
2018-07-25T06:31:42.906Z,17.20
2018-07-25T06:34:12.763Z,23.93
2018-07-25T06:36:42.641Z,18.47
2018-07-25T06:39:13.795Z,28.03
2018-07-25T06:41:43.571Z,15.77
2018-07-25T06:44:13.338Z,16.50
2018-07-25T06:46:43.060Z,19.93
2018-07-25T06:49:13.865Z,20.37
2018-07-25T06:51:43.584Z,17.40
2018-07-25T06:54:13.343Z,33.63
2018-07-25T06:56:43.078Z,16.93
2018-07-25T07:02:19.033Z,13.87
2018-07-25T07:04:48.760Z,15.53
2018-07-25T07:07:21.015Z,16.50
2018-07-25T07:09:51.517Z,15.10
2018-07-25T07:12:21.309Z,14.20
2018-07-25T07:14:51.042Z,24.13
2018-07-25T07:17:20.802Z,14.30
2018-07-25T07:19:50.441Z,14.30
2018-07-25T07:22:20.264Z,14.07
2018-07-25T07:24:50.092Z,13.17
2018-07-25T07:27:19.791Z,12.97
2018-07-25T07:29:49.543Z,14.67
2018-07-25T07:32:19.762Z,12.60
2018-07-25T07:34:49.474Z,14.07
2018-07-25T07:37:19.144Z,13.57
2018-07-25T07:39:48.850Z,14.53
2018-07-25T07:42:18.651Z,17.50
2018-07-25T07:44:52.102Z,15.57
2018-07-25T07:47:21.679Z,13.03
2018-07-25T07:49:52.282Z,13.43
2018-07-25T07:52:23.168Z,13.00
2018-07-25T07:54:52.772Z,14.80
2018-07-25T07:57:22.382Z,13.70
2018-07-25T07:59:52.599Z,15.27
2018-07-25T08:02:22.159Z,16.40
2018-07-25T08:04:51.803Z,15.73
2018-07-25T08:07:21.654Z,15.80
2018-07-25T08:09:51.796Z,14.10
2018-07-25T08:12:21.699Z,14.43
2018-07-25T08:14:56.876Z,16.83
2018-07-25T08:17:26.663Z,13.43
2018-07-25T08:19:56.505Z,13.63
2018-07-25T08:22:26.325Z,14.07
2018-07-25T08:24:56.149Z,13.20
2018-07-25T08:27:25.924Z,13.73
2018-07-25T08:29:55.687Z,12.80
2018-07-25T08:32:25.466Z,13.03
2018-07-25T08:34:55.744Z,11.33
2018-07-25T08:37:26.346Z,11.93
2018-07-25T08:39:56.517Z,11.17
2018-07-25T08:42:26.333Z,11.47
2018-07-25T08:44:56.054Z,11.10
2018-07-25T08:47:25.785Z,10.50
2018-07-25T08:49:55.592Z,11.43
2018-07-25T08:52:25.329Z,12.33
2018-07-25T08:54:55.890Z,9.67
2018-07-25T08:57:26.398Z,11.53
2018-07-25T08:59:58.476Z,10.27
2018-07-25T09:02:29.226Z,9.00
2018-07-25T09:04:59.561Z,10.70
2018-07-25T09:07:30.141Z,10.20
2018-07-25T09:10:02.437Z,9.30
2018-07-25T09:12:33.503Z,12.50
2018-07-25T09:15:03.712Z,9.57
2018-07-25T09:17:34.542Z,7.80
2018-07-25T09:20:09.061Z,6.07
2018-07-25T09:22:39.350Z,8.53
2018-07-25T09:25:09.844Z,8.00
2018-07-25T09:27:40.434Z,5.97
2018-07-25T09:30:11.794Z,6.20
2018-07-25T09:32:42.355Z,4.60
2018-07-25T09:35:13.426Z,6.03
2018-07-25T09:37:44.050Z,6.30
2018-07-25T09:40:14.715Z,4.47
2018-07-25T09:42:46.376Z,2.57
2018-07-25T09:45:16.907Z,3.00
2018-07-25T09:48:49.911Z,3.30
2018-07-25T09:51:23.555Z,5.17
2018-07-25T09:53:54.493Z,5.80
2018-07-25T09:56:28.391Z,4.13
2018-07-25T09:58:59.192Z,5.20
2018-07-25T10:01:29.389Z,4.00
2018-07-25T10:03:59.882Z,4.47
2018-07-25T10:06:33.342Z,4.60
2018-07-25T10:09:04.218Z,4.70
2018-07-25T10:11:34.991Z,4.77
2018-07-25T10:14:05.519Z,4.30
2018-07-25T10:16:36.561Z,3.43
2018-07-25T10:19:07.273Z,4.47
2018-07-25T10:21:37.905Z,3.53
2018-07-25T10:24:08.354Z,3.40
2018-07-25T10:26:39.661Z,5.70
2018-07-25T10:29:10.951Z,3.97
2018-07-25T10:31:42.008Z,5.73
2018-07-25T10:34:12.317Z,4.50
2018-07-25T10:36:42.365Z,5.50
2018-07-25T10:39:12.221Z,4.67
2018-07-25T10:41:42.474Z,3.80
2018-07-25T10:44:13.234Z,4.50
2018-07-25T10:46:44.026Z,4.60
2018-07-25T10:49:13.842Z,4.23
2018-07-25T10:51:43.581Z,4.17
2018-07-25T10:54:13.407Z,5.43
2018-07-25T10:56:43.945Z,2.10
2018-07-25T10:59:14.377Z,1.57
2018-07-25T11:01:45.073Z,2.27
2018-07-25T11:04:15.266Z,2.00
2018-07-25T11:06:46.176Z,3.40
2018-07-25T11:12:15.849Z,5.10
2018-07-25T11:14:45.702Z,4.73
2018-07-25T11:17:16.028Z,4.73
2018-07-25T11:19:45.737Z,5.17
2018-07-25T11:22:15.482Z,5.83
2018-07-25T11:24:45.363Z,5.80
2018-07-25T11:27:15.320Z,5.37
2018-07-25T11:29:44.988Z,5.20
2018-07-25T11:32:14.992Z,14.23
2018-07-25T11:34:44.778Z,5.60
2018-07-25T11:37:15.391Z,4.63
2018-07-25T11:39:45.145Z,6.00
2018-07-25T11:42:14.838Z,5.73
2018-07-25T11:44:44.436Z,6.60
2018-07-25T11:47:14.353Z,6.30
2018-07-25T11:49:44.105Z,4.87
2018-07-25T11:52:13.746Z,6.50
2018-07-25T11:54:43.554Z,7.37
2018-07-25T11:57:14.008Z,7.67
2018-07-25T11:59:43.907Z,6.23
2018-07-25T12:02:13.673Z,5.03
2018-07-25T12:04:43.519Z,5.97
2018-07-25T12:07:13.311Z,4.63
2018-07-25T12:09:44.006Z,4.73
2018-07-25T12:12:13.914Z,4.03
2018-07-25T12:14:43.707Z,5.30
2018-07-25T12:17:13.777Z,4.90
2018-07-25T12:19:43.468Z,5.67
2018-07-25T12:22:13.191Z,3.97
2018-07-25T12:24:43.174Z,5.13
2018-07-25T12:27:12.978Z,4.87
2018-07-25T12:29:42.714Z,3.93
2018-07-25T12:32:12.516Z,5.00
2018-07-25T12:34:42.318Z,5.23
2018-07-25T12:37:12.156Z,5.40
2018-07-25T12:39:42.305Z,5.97
2018-07-25T12:42:12.070Z,5.40
2018-07-25T12:44:42.214Z,5.23
2018-07-25T12:47:11.846Z,6.03
2018-07-25T12:49:41.476Z,6.53
2018-07-25T12:52:11.715Z,7.20
2018-07-25T12:54:41.586Z,7.00
2018-07-25T12:57:12.431Z,6.10
2018-07-25T12:59:42.956Z,6.53
2018-07-25T13:02:12.709Z,7.43
2018-07-25T13:04:42.477Z,6.10
2018-07-25T13:07:13.361Z,6.30
2018-07-25T13:09:43.126Z,5.33
2018-07-25T13:12:13.543Z,5.63
2018-07-25T13:14:43.673Z,5.67
2018-07-25T13:17:14.400Z,5.70
2018-07-25T13:19:44.414Z,6.13
2018-07-25T13:22:14.264Z,5.53
2018-07-25T13:24:44.181Z,5.10
2018-07-25T13:27:13.953Z,9.97
2018-07-25T13:29:43.785Z,5.97
2018-07-25T13:32:13.740Z,4.90
2018-07-25T13:34:43.498Z,10.37
2018-07-25T13:37:13.557Z,10.73
2018-07-25T13:39:43.545Z,5.50
2018-07-25T13:42:13.809Z,5.27
2018-07-25T13:44:43.491Z,5.67
2018-07-25T13:47:13.274Z,2.30
2018-07-25T13:49:43.096Z,1.80
2018-07-25T13:52:13.440Z,2.13
2018-07-25T13:54:43.340Z,1.17
2018-07-25T13:57:13.235Z,1.90
2018-07-25T13:59:43.040Z,2.50
2018-07-25T14:02:13.500Z,1.20
2018-07-25T14:04:43.285Z,1.57
2018-07-25T14:07:13.522Z,1.70
2018-07-25T14:09:43.238Z,3.17
2018-07-25T14:12:13.441Z,2.03
2018-07-25T14:14:43.233Z,2.33
2018-07-25T14:17:13.218Z,2.33
2018-07-25T14:19:42.892Z,3.13
2018-07-25T14:22:12.824Z,7.90
2018-07-25T14:24:42.594Z,2.03
2018-07-25T14:27:12.464Z,3.20
2018-07-25T14:29:42.402Z,2.43
2018-07-25T14:32:12.237Z,3.30
2018-07-25T14:34:41.946Z,3.73
2018-07-25T14:37:11.704Z,3.23
2018-07-25T14:39:41.604Z,3.30
2018-07-25T14:42:11.405Z,3.10
2018-07-25T14:44:41.663Z,2.63
2018-07-25T14:47:11.476Z,3.17
2018-07-25T14:49:41.260Z,3.07
2018-07-25T14:52:10.958Z,4.23
2018-07-25T14:54:40.830Z,2.47
2018-07-25T14:57:10.718Z,5.17
2018-07-25T14:59:40.629Z,2.70
2018-07-25T15:02:10.941Z,3.90
2018-07-25T15:04:40.558Z,3.37
2018-07-25T15:07:10.454Z,3.80
2018-07-25T15:09:40.281Z,3.43
2018-07-25T15:12:10.272Z,3.27
2018-07-25T15:14:40.960Z,2.97
2018-07-25T15:17:10.931Z,5.33
2018-07-25T15:19:40.809Z,2.97
2018-07-25T15:22:10.610Z,3.67
2018-07-25T15:24:40.416Z,3.30
2018-07-25T15:27:11.107Z,4.03
2018-07-25T15:29:41.143Z,3.00
2018-07-25T15:32:11.070Z,3.33
2018-07-25T15:34:40.928Z,4.50
2018-07-25T15:37:12.428Z,3.03
2018-07-25T15:39:42.207Z,3.57
2018-07-25T15:42:11.963Z,3.60
2018-07-25T15:44:42.082Z,4.57
2018-07-25T15:47:13.099Z,3.33
2018-07-25T15:49:42.885Z,3.00
2018-07-25T15:52:12.697Z,4.13
2018-07-25T15:54:42.470Z,3.53
2018-07-25T15:57:12.727Z,3.70
2018-07-25T15:59:42.351Z,3.33
2018-07-25T16:02:12.154Z,7.93
2018-07-25T16:04:41.911Z,2.70
2018-07-25T16:07:11.722Z,2.73
2018-07-25T16:09:41.624Z,2.63
2018-07-25T16:12:11.440Z,3.37
2018-07-25T16:14:41.317Z,3.00
2018-07-25T16:17:11.516Z,3.73
2018-07-25T16:19:41.318Z,2.97
2018-07-25T16:22:11.077Z,4.20
2018-07-25T16:24:40.848Z,3.33
2018-07-25T16:27:10.761Z,2.60
2018-07-25T16:29:40.509Z,4.40
2018-07-25T16:32:10.446Z,3.07
2018-07-25T16:34:40.063Z,2.70
2018-07-25T16:37:09.834Z,3.53
2018-07-25T16:39:39.784Z,7.23
2018-07-25T16:42:09.564Z,3.03
2018-07-25T16:44:39.283Z,3.60
2018-07-25T16:47:09.137Z,2.77
2018-07-25T16:49:39.047Z,3.33
2018-07-25T16:52:08.831Z,2.57
2018-07-25T16:54:38.547Z,4.40
2018-07-25T16:57:08.418Z,5.60
2018-07-25T16:59:38.226Z,3.90
2018-07-25T17:02:07.989Z,10.30
2018-07-25T17:04:37.970Z,4.50
2018-07-25T17:07:08.457Z,4.40
2018-07-25T17:09:38.336Z,4.80
2018-07-25T17:12:08.093Z,4.53
2018-07-25T17:14:37.921Z,5.87
2018-07-25T17:17:07.681Z,4.57
2018-07-25T17:19:39.645Z,5.50
2018-07-25T17:22:17.384Z,6.10
2018-07-25T17:24:56.929Z,5.20
2018-07-25T17:27:26.949Z,15.43
2018-07-25T17:30:03.216Z,5.20
2018-07-25T17:32:33.386Z,5.73
2018-07-25T17:35:03.925Z,9.77
2018-07-25T17:40:33.951Z,4.27
2018-07-25T17:43:10.644Z,4.43
2018-07-25T17:45:43.222Z,4.97
2018-07-25T17:48:13.078Z,9.17
2018-07-25T17:50:47.683Z,3.83
2018-07-25T17:53:18.019Z,8.10
2018-07-25T17:55:49.816Z,5.10
2018-07-25T17:58:23.216Z,4.30
2018-07-25T18:00:54.622Z,4.00
2018-07-25T18:03:25.280Z,3.50
2018-07-25T18:05:55.764Z,4.50
2018-07-25T18:08:26.563Z,4.00
2018-07-25T18:10:56.590Z,4.33
2018-07-25T18:13:31.690Z,3.83
2018-07-25T18:16:01.676Z,3.33
2018-07-25T18:18:32.106Z,4.00
2018-07-25T18:21:02.622Z,5.00
2018-07-25T18:23:33.257Z,4.23
2018-07-25T18:26:03.186Z,4.90
2018-07-25T18:28:34.156Z,5.30
2018-07-25T18:31:04.352Z,5.20
2018-07-25T18:33:35.691Z,5.90
2018-07-25T18:36:05.479Z,7.10
2018-07-25T18:38:36.049Z,5.20
2018-07-25T18:41:05.821Z,6.77
2018-07-25T18:43:35.611Z,5.40
2018-07-25T18:46:05.496Z,5.23
2018-07-25T18:51:23.173Z,5.67
2018-07-25T18:56:30.776Z,5.40
2018-07-25T18:59:01.040Z,5.30
2018-07-25T19:01:30.797Z,5.00
2018-07-25T19:04:00.678Z,4.63
2018-07-25T19:06:30.350Z,5.53
2018-07-25T19:09:00.074Z,6.30
2018-07-25T19:11:29.831Z,18.93
2018-07-25T19:14:04.407Z,5.77
2018-07-25T19:19:39.149Z,5.00
2018-07-25T19:22:09.694Z,5.20
2018-07-25T19:24:40.040Z,10.10
2018-07-25T19:53:15.034Z,4.27
2018-07-25T19:55:44.616Z,4.80
2018-07-25T19:58:14.464Z,7.40
2018-07-25T23:44:24.789Z,4.93
2018-07-25T23:46:54.501Z,4.80
2018-07-25T23:49:24.371Z,6.67
2018-07-25T23:51:54.717Z,5.30
2018-07-25T23:54:24.537Z,9.40
2018-07-25T23:56:54.380Z,7.53
2018-07-25T23:59:24.103Z,5.00
